createdAt,value
2022-10-17T00:00:31.883Z,1008.226560124
2022-10-17T00:01:32.089Z,1008.023377396
2022-10-17T00:02:31.895Z,1008.429742852
2022-10-17T00:03:31.297Z,1008.429742852
2022-10-17T00:04:31.937Z,1008.328151488
2022-10-17T00:05:31.900Z,1008.328151488
2022-10-17T00:06:31.926Z,1008.429742852
2022-10-17T00:07:31.511Z,1008.429742852
2022-10-17T00:08:31.904Z,1008.1249687599999
2022-10-17T00:09:31.938Z,1008.328151488
2022-10-17T00:10:31.916Z,1008.226560124
2022-10-17T00:11:31.324Z,1008.226560124
2022-10-17T00:12:31.897Z,1008.328151488
2022-10-17T00:14:31.902Z,1008.734516944
2022-10-17T00:15:31.312Z,1008.734516944
2022-10-17T00:16:31.877Z,1008.63292558
2022-10-17T00:17:31.878Z,1008.531334216
2022-10-17T00:18:32.008Z,1008.63292558
2022-10-17T00:19:31.287Z,1008.63292558
2022-10-17T00:20:31.908Z,1008.429742852
2022-10-17T00:21:31.889Z,1008.63292558
2022-10-17T00:22:31.939Z,1008.531334216
2022-10-17T00:23:31.317Z,1008.531334216
2022-10-17T00:24:31.879Z,1008.531334216
2022-10-17T00:25:32.040Z,1008.63292558
2022-10-17T00:26:31.922Z,1008.429742852
2022-10-17T00:27:31.289Z,1008.429742852
2022-10-17T00:28:31.957Z,1008.734516944
2022-10-17T00:29:31.910Z,1008.63292558
2022-10-17T00:30:31.911Z,1008.937699672
2022-10-17T00:31:31.303Z,1008.937699672
2022-10-17T00:32:32.050Z,1008.836108308
2022-10-17T00:33:31.916Z,1008.836108308
2022-10-17T00:34:31.877Z,1008.63292558
2022-10-17T00:35:31.275Z,1008.63292558
2022-10-17T00:36:31.900Z,1008.63292558
2022-10-17T00:37:31.891Z,1008.836108308
2022-10-17T00:38:31.898Z,1008.734516944
2022-10-17T00:39:31.283Z,1008.734516944
2022-10-17T00:40:31.879Z,1008.836108308
2022-10-17T00:41:31.884Z,1008.836108308
2022-10-17T00:42:31.877Z,1008.734516944
2022-10-17T00:43:31.282Z,1008.734516944
2022-10-17T00:44:31.918Z,1008.836108308
2022-10-17T00:45:31.885Z,1008.836108308
2022-10-17T00:46:31.889Z,1009.0392910360001
2022-10-17T00:47:31.394Z,1009.0392910360001
2022-10-17T00:48:31.895Z,1009.0392910360001
2022-10-17T00:49:31.901Z,1008.937699672
2022-10-17T00:50:31.944Z,1008.63292558
2022-10-17T00:51:31.237Z,1008.63292558
2022-10-17T00:52:32.166Z,1008.836108308
2022-10-17T00:53:31.921Z,1008.836108308
2022-10-17T00:54:31.914Z,1009.0392910360001
2022-10-17T00:55:31.262Z,1009.0392910360001
2022-10-17T00:56:31.887Z,1008.937699672
2022-10-17T00:57:31.878Z,1009.0392910360001
2022-10-17T00:58:31.887Z,1009.1070186119999
2022-10-17T00:59:31.255Z,1009.1070186119999
2022-10-17T01:00:31.899Z,1008.734516944
2022-10-17T01:01:31.932Z,1009.1070186119999
2022-10-17T01:02:31.897Z,1009.0392910360001
2022-10-17T01:03:31.265Z,1009.0392910360001
2022-10-17T01:04:31.912Z,1008.937699672
2022-10-17T01:05:31.881Z,1008.836108308
2022-10-17T01:06:31.891Z,1008.836108308
2022-10-17T01:07:34.645Z,1008.836108308
2022-10-17T01:08:31.955Z,1008.937699672
2022-10-17T01:09:31.896Z,1009.0392910360001
2022-10-17T01:10:31.880Z,1009.0392910360001
2022-10-17T01:11:31.249Z,1009.0392910360001
2022-10-17T01:12:31.883Z,1009.0392910360001
2022-10-17T01:13:31.896Z,1008.937699672
2022-10-17T01:14:31.909Z,1009.1070186119999
2022-10-17T01:15:31.299Z,1009.1070186119999
2022-10-17T01:16:31.914Z,1009.0392910360001
2022-10-17T01:17:31.893Z,1009.1070186119999
2022-10-17T01:18:31.920Z,1009.1070186119999
2022-10-17T01:19:31.209Z,1009.1070186119999
2022-10-17T01:20:31.883Z,1009.3102013399999
2022-10-17T01:21:31.883Z,1009.3102013399999
2022-10-17T01:22:31.893Z,1009.208609976
2022-10-17T01:23:31.206Z,1009.208609976
2022-10-17T01:24:31.900Z,1009.1070186119999
2022-10-17T01:25:32.080Z,1009.208609976
2022-10-17T01:26:31.939Z,1009.3102013399999
2022-10-17T01:27:31.238Z,1009.3102013399999
2022-10-17T01:28:32.004Z,1009.1070186119999
2022-10-17T01:29:31.891Z,1009.208609976
2022-10-17T01:30:31.896Z,1009.3102013399999
2022-10-17T01:31:31.220Z,1009.3102013399999
2022-10-17T01:32:31.880Z,1009.4117927039999
2022-10-17T01:33:31.899Z,1009.3102013399999
2022-10-17T01:34:31.878Z,1009.4117927039999
2022-10-17T01:35:31.214Z,1009.4117927039999
2022-10-17T01:36:31.872Z,1009.513384068
2022-10-17T01:37:31.909Z,1009.6149754319999
2022-10-17T01:38:31.947Z,1009.6149754319999
2022-10-17T01:39:32.513Z,1009.6149754319999
2022-10-17T01:40:31.994Z,1009.4117927039999
2022-10-17T01:41:32.061Z,1009.4117927039999
2022-10-17T01:42:31.954Z,1009.513384068
2022-10-17T01:43:31.377Z,1009.513384068
2022-10-17T01:44:32.000Z,1009.513384068
2022-10-17T01:45:32.112Z,1009.4117927039999
2022-10-17T01:46:32.047Z,1009.6149754319999
2022-10-17T01:47:31.691Z,1009.6149754319999
2022-10-17T01:48:32.032Z,1009.7165667959999
2022-10-17T01:49:31.899Z,1009.919749524
2022-10-17T01:50:31.952Z,1009.6149754319999
2022-10-17T01:51:31.186Z,1009.6149754319999
2022-10-17T01:52:31.885Z,1009.6149754319999
2022-10-17T01:53:31.874Z,1009.7165667959999
2022-10-17T01:54:31.890Z,1009.6149754319999
2022-10-17T01:55:31.154Z,1009.6149754319999
2022-10-17T01:56:31.910Z,1009.513384068
2022-10-17T01:57:31.893Z,1009.6149754319999
2022-10-17T01:58:31.864Z,1009.7165667959999
2022-10-17T01:59:31.185Z,1009.7165667959999
2022-10-17T02:00:31.992Z,1009.81815816
2022-10-17T02:01:31.929Z,1009.919749524
2022-10-17T02:02:31.869Z,1009.919749524
2022-10-17T02:03:31.193Z,1009.919749524
2022-10-17T02:04:31.883Z,1009.919749524
2022-10-17T02:05:31.883Z,1009.81815816
2022-10-17T02:06:31.882Z,1010.122932252
2022-10-17T02:07:31.305Z,1010.122932252
2022-10-17T02:08:31.927Z,1010.0213408879999
2022-10-17T02:09:31.956Z,1009.7165667959999
2022-10-17T02:10:31.876Z,1009.919749524
2022-10-17T02:11:31.204Z,1009.919749524
2022-10-17T02:12:31.880Z,1009.81815816
2022-10-17T02:13:31.881Z,1010.224523616
2022-10-17T02:14:31.883Z,1010.224523616
2022-10-17T02:15:31.162Z,1010.224523616
2022-10-17T02:16:31.877Z,1010.0213408879999
2022-10-17T02:17:31.901Z,1010.122932252
2022-10-17T02:18:31.931Z,1010.122932252
2022-10-17T02:19:31.167Z,1010.122932252
2022-10-17T02:20:31.860Z,1010.122932252
2022-10-17T02:21:31.868Z,1010.4277063440001
2022-10-17T02:22:32.592Z,1010.224523616
2022-10-17T02:23:31.950Z,1010.3261149799999
2022-10-17T02:24:31.878Z,1010.224523616
2022-10-17T02:25:31.870Z,1010.3261149799999
2022-10-17T02:26:31.917Z,1010.4277063440001
2022-10-17T02:27:31.856Z,1010.3261149799999
2022-10-17T02:28:31.946Z,1010.4277063440001
2022-10-17T02:29:31.904Z,1010.3261149799999
2022-10-17T02:30:31.882Z,1010.3261149799999
2022-10-17T02:31:31.166Z,1010.3261149799999
2022-10-17T02:32:31.937Z,1010.5292977080001
2022-10-17T02:33:31.855Z,1010.3261149799999
2022-10-17T02:34:31.879Z,1010.3261149799999
2022-10-17T02:35:31.122Z,1010.3261149799999
2022-10-17T02:36:31.876Z,1010.5292977080001
2022-10-17T02:37:31.901Z,1010.5292977080001
2022-10-17T02:38:31.883Z,1010.5292977080001
2022-10-17T02:39:31.159Z,1010.5292977080001
2022-10-17T02:40:31.924Z,1010.5292977080001
2022-10-17T02:41:31.881Z,1010.4277063440001
2022-10-17T02:42:32.088Z,1010.5292977080001
2022-10-17T02:43:31.870Z,1010.630889072
2022-10-17T02:44:31.880Z,1010.5292977080001
2022-10-17T02:45:31.868Z,1010.630889072
2022-10-17T02:46:31.857Z,1010.630889072
2022-10-17T02:47:31.843Z,1010.5292977080001
2022-10-17T02:48:31.852Z,1010.7324804360001
2022-10-17T02:49:31.888Z,1010.5292977080001
2022-10-17T02:50:31.878Z,1010.8340718000001
2022-10-17T02:51:31.845Z,1010.5292977080001
2022-10-17T02:52:32.630Z,1010.7324804360001
2022-10-17T02:53:31.884Z,1010.7324804360001
2022-10-17T02:54:31.855Z,1010.8340718000001
2022-10-17T02:55:31.841Z,1010.8340718000001
2022-10-17T02:56:31.942Z,1010.630889072
2022-10-17T02:57:31.897Z,1010.8340718000001
2022-10-17T02:58:31.868Z,1010.630889072
2022-10-17T02:59:31.919Z,1010.7324804360001
2022-10-17T03:00:31.877Z,1010.7324804360001
2022-10-17T03:01:31.977Z,1010.8340718000001
2022-10-17T03:02:32.085Z,1011.0372545280001
2022-10-17T03:03:31.849Z,1010.7324804360001
2022-10-17T03:04:31.986Z,1010.8340718000001
2022-10-17T03:05:31.876Z,1011.0372545280001
2022-10-17T03:06:32.003Z,1011.0372545280001
2022-10-17T03:07:31.906Z,1011.0372545280001
2022-10-17T03:08:31.970Z,1011.0372545280001
2022-10-17T03:09:31.881Z,1011.1388458920001
2022-10-17T03:10:31.970Z,1011.0372545280001
2022-10-17T03:11:32.088Z,1010.935663164
2022-10-17T03:12:32.179Z,1011.0372545280001
2022-10-17T03:13:34.999Z,1011.1388458920001
2022-10-17T03:14:31.972Z,1011.0372545280001
2022-10-17T03:15:32.005Z,1011.2404372559998
2022-10-17T03:16:31.883Z,1011.1388458920001
2022-10-17T03:17:31.960Z,1011.2404372559998
2022-10-17T03:18:31.938Z,1011.0372545280001
2022-10-17T03:19:31.962Z,1011.2404372559998
2022-10-17T03:20:31.959Z,1011.409756196
2022-10-17T03:21:31.945Z,1011.308164832
2022-10-17T03:22:32.443Z,1011.1388458920001
2022-10-17T03:23:31.927Z,1011.2404372559998
2022-10-17T03:24:32.000Z,1011.308164832
2022-10-17T03:25:32.041Z,1011.1388458920001
2022-10-17T03:26:31.989Z,1011.308164832
2022-10-17T03:27:32.491Z,1011.308164832
2022-10-17T03:28:31.930Z,1011.2404372559998
2022-10-17T03:29:31.950Z,1011.51134756
2022-10-17T03:30:31.954Z,1011.409756196
2022-10-17T03:31:31.890Z,1011.308164832
2022-10-17T03:32:31.947Z,1011.612938924
2022-10-17T03:33:32.012Z,1011.409756196
2022-10-17T03:34:31.916Z,1011.51134756
2022-10-17T03:35:32.128Z,1011.51134756
2022-10-17T03:36:31.874Z,1011.7145302880001
2022-10-17T03:37:32.245Z,1011.409756196
2022-10-17T03:38:31.849Z,1011.51134756
2022-10-17T03:39:31.879Z,1011.612938924
2022-10-17T03:40:31.948Z,1011.409756196
2022-10-17T03:41:32.032Z,1011.409756196
2022-10-17T03:42:31.998Z,1011.612938924
2022-10-17T03:43:31.982Z,1011.816121652
2022-10-17T03:44:31.869Z,1011.9177130160001
2022-10-17T03:45:31.860Z,1011.7145302880001
2022-10-17T03:46:31.865Z,1011.816121652
2022-10-17T03:47:32.240Z,1011.9177130160001
2022-10-17T03:48:31.865Z,1011.7145302880001
2022-10-17T03:49:31.858Z,1011.816121652
2022-10-17T03:50:31.972Z,1011.9177130160001
2022-10-17T03:51:31.904Z,1011.816121652
2022-10-17T03:52:32.054Z,1011.9177130160001
2022-10-17T03:53:31.859Z,1011.612938924
2022-10-17T03:54:31.861Z,1011.9177130160001
2022-10-17T03:55:31.890Z,1012.120895744
2022-10-17T03:56:31.829Z,1011.9177130160001
2022-10-17T03:57:32.124Z,1011.816121652
2022-10-17T03:58:31.872Z,1011.9177130160001
2022-10-17T03:59:31.974Z,1011.9177130160001
2022-10-17T04:00:31.846Z,1012.120895744
2022-10-17T04:01:32.071Z,1012.120895744
2022-10-17T04:02:31.887Z,1012.120895744
2022-10-17T04:03:31.869Z,1012.0193043800001
2022-10-17T04:04:31.907Z,1012.0193043800001
2022-10-17T04:05:32.002Z,1012.2224871079999
2022-10-17T04:06:31.857Z,1012.4256698359999
2022-10-17T04:07:31.815Z,1012.2224871079999
2022-10-17T04:08:31.885Z,1012.324078472
2022-10-17T04:09:31.836Z,1012.2224871079999
2022-10-17T04:10:31.885Z,1012.4256698359999
2022-10-17T04:11:32.027Z,1012.5272611999999
2022-10-17T04:12:32.134Z,1012.324078472
2022-10-17T04:13:31.878Z,1012.4256698359999
2022-10-17T04:14:31.857Z,1012.324078472
2022-10-17T04:15:31.845Z,1012.4256698359999
2022-10-17T04:16:31.870Z,1012.628852564
2022-10-17T04:17:35.883Z,1012.5272611999999
2022-10-17T04:18:31.882Z,1012.5272611999999
2022-10-17T04:19:31.823Z,1012.7304439279999
2022-10-17T04:20:31.848Z,1012.628852564
2022-10-17T04:21:31.861Z,1012.4256698359999
2022-10-17T04:22:32.117Z,1012.5272611999999
2022-10-17T04:23:31.840Z,1012.5272611999999
2022-10-17T04:24:31.906Z,1012.5272611999999
2022-10-17T04:25:34.680Z,1012.7304439279999
2022-10-17T04:26:31.848Z,1012.5272611999999
2022-10-17T04:27:31.851Z,1012.7304439279999
2022-10-17T04:28:31.959Z,1012.628852564
2022-10-17T04:29:31.849Z,1012.628852564
2022-10-17T04:30:31.844Z,1012.7304439279999
2022-10-17T04:31:31.867Z,1012.7304439279999
2022-10-17T04:32:32.290Z,1012.8320352919999
2022-10-17T04:33:31.867Z,1012.628852564
2022-10-17T04:34:31.849Z,1012.933626656
2022-10-17T04:35:31.832Z,1012.933626656
2022-10-17T04:36:31.860Z,1013.1368093839999
2022-10-17T04:37:31.884Z,1012.8320352919999
2022-10-17T04:38:31.925Z,1012.7304439279999
2022-10-17T04:39:31.850Z,1012.8320352919999
2022-10-17T04:40:31.868Z,1012.7304439279999
2022-10-17T04:41:32.104Z,1012.8320352919999
2022-10-17T04:42:32.188Z,1013.1368093839999
2022-10-17T04:43:31.839Z,1013.03521802
2022-10-17T04:44:31.908Z,1012.933626656
2022-10-17T04:45:31.965Z,1012.8320352919999
2022-10-17T04:46:31.911Z,1013.03521802
2022-10-17T04:47:31.817Z,1012.933626656
2022-10-17T04:48:31.878Z,1013.03521802
2022-10-17T04:49:31.993Z,1012.933626656
2022-10-17T04:50:31.910Z,1012.933626656
2022-10-17T04:51:31.839Z,1013.1368093839999
2022-10-17T04:52:32.355Z,1013.238400748
2022-10-17T04:53:31.847Z,1013.339992112
2022-10-17T04:54:31.831Z,1013.339992112
2022-10-17T04:55:31.829Z,1013.238400748
2022-10-17T04:56:31.872Z,1013.238400748
2022-10-17T04:57:31.855Z,1013.5093110519999
2022-10-17T04:58:31.896Z,1013.5093110519999
2022-10-17T04:59:31.830Z,1013.5093110519999
2022-10-17T05:00:31.913Z,1013.7124937799999
2022-10-17T05:01:31.879Z,1013.6109024159999
2022-10-17T05:02:32.064Z,1013.6109024159999
2022-10-17T05:03:31.840Z,1013.5093110519999
2022-10-17T05:04:31.872Z,1013.7124937799999
2022-10-17T05:05:31.840Z,1013.6109024159999
2022-10-17T05:06:31.865Z,1013.6109024159999
2022-10-17T05:07:31.875Z,1013.5093110519999
2022-10-17T05:08:31.858Z,1013.6109024159999
2022-10-17T05:09:31.838Z,1013.6109024159999
2022-10-17T05:10:31.880Z,1013.5093110519999
2022-10-17T05:11:31.866Z,1013.6109024159999
2022-10-17T05:12:32.162Z,1013.4077196879999
2022-10-17T05:13:31.857Z,1013.7124937799999
2022-10-17T05:14:31.906Z,1013.6109024159999
2022-10-17T05:15:31.853Z,1013.7124937799999
2022-10-17T05:16:31.866Z,1013.8140851439999
2022-10-17T05:17:31.848Z,1013.4077196879999
2022-10-17T05:18:31.938Z,1013.5093110519999
2022-10-17T05:19:32.105Z,1013.8140851439999
2022-10-17T05:20:31.877Z,1013.7124937799999
2022-10-17T05:22:32.171Z,1013.7124937799999
2022-10-17T05:23:31.860Z,1013.6109024159999
2022-10-17T05:24:31.957Z,1013.7124937799999
2022-10-17T05:25:31.851Z,1013.8140851439999
2022-10-17T05:26:31.855Z,1013.8140851439999
2022-10-17T05:27:32.157Z,1013.5093110519999
2022-10-17T05:28:32.106Z,1013.9156765079999
2022-10-17T05:29:31.836Z,1013.6109024159999
2022-10-17T05:30:35.215Z,1013.7124937799999
2022-10-17T05:31:31.849Z,1013.8140851439999
2022-10-17T05:32:32.200Z,1014.0172678719999
2022-10-17T05:33:31.846Z,1013.8140851439999
2022-10-17T05:34:31.863Z,1013.8140851439999
2022-10-17T05:35:31.859Z,1014.2204505999999
2022-10-17T05:36:31.847Z,1014.2204505999999
2022-10-17T05:37:31.848Z,1014.0172678719999
2022-10-17T05:38:31.869Z,1014.3220419639999
2022-10-17T05:39:31.862Z,1014.3220419639999
2022-10-17T05:40:31.867Z,1014.1188592359999
2022-10-17T05:41:31.847Z,1014.2204505999999
2022-10-17T05:42:32.453Z,1014.3220419639999
2022-10-17T05:43:31.840Z,1014.2204505999999
2022-10-17T05:44:31.863Z,1014.2204505999999
2022-10-17T05:45:31.825Z,1014.423633328
2022-10-17T05:46:31.845Z,1014.2204505999999
2022-10-17T05:47:32.411Z,1014.5252246919999
2022-10-17T05:48:32.013Z,1014.3220419639999
2022-10-17T05:49:43.581Z,1014.2204505999999
2022-10-17T05:50:31.863Z,1014.423633328
2022-10-17T05:51:32.880Z,1014.5252246919999
2022-10-17T05:52:32.189Z,1014.3220419639999
2022-10-17T05:53:31.853Z,1014.423633328
2022-10-17T05:54:31.857Z,1014.72840742
2022-10-17T05:55:31.862Z,1014.72840742
2022-10-17T05:56:31.857Z,1014.72840742
2022-10-17T05:57:31.866Z,1014.6268160559999
2022-10-17T05:58:49.375Z,1014.6268160559999
2022-10-17T05:59:31.895Z,1014.6268160559999
2022-10-17T06:00:32.066Z,1014.72840742
2022-10-17T06:01:31.864Z,1014.6268160559999
2022-10-17T06:02:32.253Z,1014.6268160559999
2022-10-17T06:03:31.858Z,1014.72840742
2022-10-17T06:04:31.837Z,1014.9315901479999
2022-10-17T06:05:31.914Z,1014.9315901479999
2022-10-17T06:06:31.844Z,1014.829998784
2022-10-17T06:07:31.863Z,1014.6268160559999
2022-10-17T06:08:31.848Z,1014.72840742
2022-10-17T06:09:31.835Z,1014.5252246919999
2022-10-17T06:10:31.833Z,1014.72840742
2022-10-17T06:11:31.863Z,1014.5252246919999
2022-10-17T06:12:32.138Z,1014.6268160559999
2022-10-17T06:13:31.843Z,1014.5252246919999
2022-10-17T06:14:31.825Z,1014.6268160559999
2022-10-17T06:15:31.946Z,1014.5252246919999
2022-10-17T06:16:31.861Z,1014.6268160559999
2022-10-17T06:17:31.838Z,1014.6268160559999
2022-10-17T06:18:31.802Z,1014.829998784
2022-10-17T06:19:31.856Z,1014.829998784
2022-10-17T06:20:31.862Z,1014.6268160559999
2022-10-17T06:21:31.861Z,1014.829998784
2022-10-17T06:22:32.203Z,1014.9315901479999
2022-10-17T06:23:31.840Z,1014.9315901479999
2022-10-17T06:24:31.966Z,1014.9315901479999
2022-10-17T06:25:31.949Z,1015.033181512
2022-10-17T06:26:31.812Z,1014.829998784
2022-10-17T06:27:31.860Z,1015.134772876
2022-10-17T06:28:31.899Z,1014.72840742
2022-10-17T06:29:31.855Z,1015.033181512
2022-10-17T06:30:31.814Z,1015.134772876
2022-10-17T06:31:31.850Z,1014.829998784
2022-10-17T06:32:32.067Z,1015.033181512
2022-10-17T06:33:31.969Z,1015.033181512
2022-10-17T06:34:31.821Z,1015.033181512
2022-10-17T06:35:31.966Z,1014.9315901479999
2022-10-17T06:36:31.898Z,1015.23636424
2022-10-17T06:37:35.396Z,1015.134772876
2022-10-17T06:38:31.828Z,1015.033181512
2022-10-17T06:39:31.847Z,1015.134772876
2022-10-17T06:40:31.854Z,1015.23636424
2022-10-17T06:41:31.850Z,1014.9315901479999
2022-10-17T06:42:31.813Z,1015.134772876
2022-10-17T06:43:31.848Z,1015.23636424
2022-10-17T06:44:31.860Z,1015.23636424
2022-10-17T06:45:31.839Z,1015.23636424
2022-10-17T06:46:32.081Z,1015.3379556040001
2022-10-17T06:47:32.219Z,1015.23636424
2022-10-17T06:48:32.853Z,1015.4395469680001
2022-10-17T06:49:38.869Z,1015.3379556040001
2022-10-17T06:50:42.935Z,1015.3379556040001
2022-10-17T06:51:46.868Z,1015.608865908
2022-10-17T06:52:50.877Z,1015.4395469680001
2022-10-17T06:53:54.886Z,1015.608865908
2022-10-17T06:54:58.957Z,1015.7104572719999
2022-10-17T06:56:02.991Z,1015.507274544
2022-10-17T06:57:06.881Z,1015.608865908
2022-10-17T06:58:10.877Z,1015.812048636
2022-10-17T06:59:14.835Z,1015.507274544
2022-10-17T07:00:19.713Z,1015.507274544
2022-10-17T07:01:22.890Z,1015.7104572719999
2022-10-17T07:02:27.137Z,1015.7104572719999
2022-10-17T07:03:30.851Z,1015.7104572719999
2022-10-17T07:04:31.862Z,1015.7104572719999
2022-10-17T07:05:31.866Z,1015.812048636
2022-10-17T07:06:31.849Z,1015.812048636
2022-10-17T07:07:32.024Z,1015.608865908
2022-10-17T07:08:31.806Z,1016.116822728
2022-10-17T07:09:31.889Z,1015.812048636
2022-10-17T07:10:31.866Z,1015.91364
2022-10-17T07:11:31.852Z,1015.812048636
2022-10-17T07:12:31.844Z,1015.91364
2022-10-17T07:13:34.467Z,1015.812048636
2022-10-17T07:14:31.842Z,1016.116822728
2022-10-17T07:15:32.009Z,1016.0152313639999
2022-10-17T07:16:31.821Z,1016.0152313639999
2022-10-17T07:17:32.183Z,1016.0152313639999
2022-10-17T07:18:31.891Z,1016.0152313639999
2022-10-17T07:19:31.851Z,1016.0152313639999
2022-10-17T07:20:31.831Z,1016.218414092
2022-10-17T07:21:35.246Z,1016.218414092
2022-10-17T07:22:31.879Z,1016.0152313639999
2022-10-17T07:23:31.846Z,1015.812048636
2022-10-17T07:24:31.837Z,1016.116822728
2022-10-17T07:25:34.142Z,1015.91364
2022-10-17T07:26:31.857Z,1016.218414092
2022-10-17T07:27:32.135Z,1016.0152313639999
2022-10-17T07:28:31.893Z,1016.0152313639999
2022-10-17T07:29:31.845Z,1016.0152313639999
2022-10-17T07:30:31.869Z,1016.0152313639999
2022-10-17T07:31:31.881Z,1016.116822728
2022-10-17T07:32:31.804Z,1016.0152313639999
2022-10-17T07:33:31.837Z,1016.116822728
2022-10-17T07:34:31.848Z,1016.218414092
2022-10-17T07:35:31.845Z,1016.218414092
2022-10-17T07:36:31.799Z,1016.3200054560001
2022-10-17T07:37:32.284Z,1016.116822728
2022-10-17T07:38:31.853Z,1016.0152313639999
2022-10-17T07:39:31.845Z,1016.218414092
2022-10-17T07:40:31.810Z,1016.42159682
2022-10-17T07:41:31.870Z,1016.218414092
2022-10-17T07:42:31.895Z,1016.3200054560001
2022-10-17T07:43:31.843Z,1016.116822728
2022-10-17T07:44:31.846Z,1016.116822728
2022-10-17T07:45:31.844Z,1016.116822728
2022-10-17T07:46:31.817Z,1016.218414092
2022-10-17T07:47:32.188Z,1016.3200054560001
2022-10-17T07:48:31.819Z,1016.3200054560001
2022-10-17T07:49:31.945Z,1016.3200054560001
2022-10-17T07:50:31.900Z,1016.6247795480001
2022-10-17T07:51:31.861Z,1016.42159682
2022-10-17T07:52:32.123Z,1016.42159682
2022-10-17T07:53:31.843Z,1016.523188184
2022-10-17T07:54:31.846Z,1016.6247795480001
2022-10-17T07:55:31.859Z,1016.6247795480001
2022-10-17T07:56:32.811Z,1016.726370912
2022-10-17T07:57:31.837Z,1016.827962276
2022-10-17T07:58:31.828Z,1016.523188184
2022-10-17T07:59:31.974Z,1016.827962276
2022-10-17T08:00:31.922Z,1016.726370912
2022-10-17T08:01:31.858Z,1016.523188184
2022-10-17T08:02:32.377Z,1017.031145004
2022-10-17T08:03:31.874Z,1016.523188184
2022-10-17T08:04:31.861Z,1016.726370912
2022-10-17T08:05:31.830Z,1016.726370912
2022-10-17T08:06:31.831Z,1017.031145004
2022-10-17T08:07:32.035Z,1016.827962276
2022-10-17T08:08:31.817Z,1016.9295536400001
2022-10-17T08:09:31.864Z,1017.132736368
2022-10-17T08:10:31.859Z,1017.031145004
2022-10-17T08:11:31.858Z,1017.031145004
2022-10-17T08:12:32.369Z,1017.031145004
2022-10-17T08:13:31.860Z,1017.132736368
2022-10-17T08:14:31.831Z,1017.132736368
2022-10-17T08:15:32.208Z,1017.132736368
2022-10-17T08:16:31.840Z,1017.031145004
2022-10-17T08:17:31.835Z,1017.132736368
2022-10-17T08:18:31.847Z,1017.2343277320001
2022-10-17T08:19:31.837Z,1017.132736368
2022-10-17T08:20:31.814Z,1016.9295536400001
2022-10-17T08:21:31.844Z,1017.2343277320001
2022-10-17T08:22:32.079Z,1017.335919096
2022-10-17T08:23:31.861Z,1017.031145004
2022-10-17T08:24:31.836Z,1017.132736368
2022-10-17T08:25:31.843Z,1017.335919096
2022-10-17T08:26:31.931Z,1017.132736368
2022-10-17T08:27:31.848Z,1017.335919096
2022-10-17T08:28:31.853Z,1017.132736368
2022-10-17T08:29:31.827Z,1017.132736368
2022-10-17T08:30:31.832Z,1017.2343277320001
2022-10-17T08:31:31.829Z,1017.335919096
2022-10-17T08:32:32.114Z,1017.43751046
2022-10-17T08:33:31.849Z,1017.335919096
2022-10-17T08:34:31.824Z,1017.132736368
2022-10-17T08:35:31.875Z,1017.2343277320001
2022-10-17T08:36:31.813Z,1017.2343277320001
2022-10-17T08:37:32.275Z,1017.335919096
2022-10-17T08:38:35.080Z,1017.335919096
2022-10-17T08:39:31.846Z,1017.2343277320001
2022-10-17T08:40:31.800Z,1017.335919096
2022-10-17T08:41:31.843Z,1017.335919096
2022-10-17T08:42:31.837Z,1017.43751046
2022-10-17T08:43:35.387Z,1017.539101824
2022-10-17T08:44:31.838Z,1017.43751046
2022-10-17T08:45:31.826Z,1017.335919096
2022-10-17T08:46:31.853Z,1017.43751046
2022-10-17T08:47:32.030Z,1017.335919096
2022-10-17T08:48:31.829Z,1017.335919096
2022-10-17T08:49:31.828Z,1017.539101824
2022-10-17T08:50:31.841Z,1017.335919096
2022-10-17T08:51:31.856Z,1017.810012128
2022-10-17T08:52:31.820Z,1017.335919096
2022-10-17T08:53:31.857Z,1017.810012128
2022-10-17T08:54:31.840Z,1017.708420764
2022-10-17T08:55:31.852Z,1017.539101824
2022-10-17T08:56:47.643Z,1017.6068294
2022-10-17T08:57:32.559Z,1017.810012128
2022-10-17T08:58:31.897Z,1017.6068294
2022-10-17T08:59:31.830Z,1017.708420764
2022-10-17T09:00:31.865Z,1017.708420764
2022-10-17T09:01:31.856Z,1017.6068294
2022-10-17T09:02:31.899Z,1017.6068294
2022-10-17T09:03:31.932Z,1017.708420764
2022-10-17T09:05:31.909Z,1017.708420764
2022-10-17T09:06:31.837Z,1017.708420764
2022-10-17T09:07:32.412Z,1017.911603492
2022-10-17T09:08:31.808Z,1018.013194856
2022-10-17T09:09:31.843Z,1017.911603492
2022-10-17T09:10:31.841Z,1018.013194856
2022-10-17T09:11:31.849Z,1017.708420764
2022-10-17T09:12:32.091Z,1017.911603492
2022-10-17T09:13:31.903Z,1017.810012128
2022-10-17T09:14:31.845Z,1018.013194856
2022-10-17T09:15:31.846Z,1017.708420764
2022-10-17T09:16:31.870Z,1017.810012128
2022-10-17T09:17:32.105Z,1018.11478622
2022-10-17T09:18:31.825Z,1018.013194856
2022-10-17T09:19:31.818Z,1018.013194856
2022-10-17T09:20:31.778Z,1018.11478622
2022-10-17T09:21:31.812Z,1017.911603492
2022-10-17T09:22:31.856Z,1018.11478622
2022-10-17T09:23:31.855Z,1018.013194856
2022-10-17T09:24:31.803Z,1018.11478622
2022-10-17T09:25:31.842Z,1018.013194856
2022-10-17T09:26:31.824Z,1018.11478622
2022-10-17T09:27:32.152Z,1018.11478622
2022-10-17T09:28:31.839Z,1017.911603492
2022-10-17T09:29:36.874Z,1018.013194856
2022-10-17T09:30:44.619Z,1018.013194856
2022-10-17T09:31:31.840Z,1018.11478622
2022-10-17T09:32:32.220Z,1017.911603492
2022-10-17T09:33:42.600Z,1018.11478622
2022-10-17T09:34:31.867Z,1018.11478622
2022-10-17T09:35:31.841Z,1018.013194856
2022-10-17T09:36:31.819Z,1018.013194856
2022-10-17T09:37:31.817Z,1018.216377584